Delaware, Ohio
Current Conditions -  °F | °C
As of 9:56 PM on Monday 20 Oct 2014 (Local Time) from KDLZ Reporting Station
Clear Clear  
Wind Chill: 48°   Ceiling: Unl
Heat Index: 48°   Visibility: 7mi
Dew Point: 46°   Wind: 0mph
Humidity: 93%   Direction: NA
Pressure: 29.88"   Gusts: NA
Location:  40.3°N, 83.06°W
Report Text: KDLZ 210156Z AUTO 00000KT 7SM CLR 09/08 A2988 RMK AO2 LTG DSNT S
Loading
Personal Weather Stations






























Interactive Weather Map New forecast layout! Learn more

10-Day Weather Forecast

Advertisements
Track Severe Weather on mobile